createdAt,value
2023-02-13T00:00:05.169Z,102936.53
2023-02-13T00:02:31.994Z,102933.09
2023-02-13T00:04:59.004Z,102930.72
2023-02-13T00:07:25.617Z,102932.38
2023-02-13T00:09:52.015Z,102935.72
2023-02-13T00:12:18.787Z,102921.50
2023-02-13T00:14:45.004Z,102923.34
2023-02-13T00:17:11.524Z,102920.41
2023-02-13T00:19:37.660Z,102932.06
2023-02-13T00:22:04.189Z,102925.66
2023-02-13T00:24:30.362Z,102927.63
2023-02-13T00:26:56.803Z,102928.72
2023-02-13T00:29:23.115Z,102933.09
2023-02-13T00:31:49.611Z,102934.84
2023-02-13T00:34:15.844Z,102936.59
2023-02-13T00:36:42.245Z,102935.72
2023-02-13T00:39:11.284Z,102932.78
2023-02-13T00:41:38.860Z,102924.47
2023-02-13T00:44:05.176Z,102913.34
2023-02-13T00:46:31.676Z,102918.03
2023-02-13T00:48:57.885Z,102920.25
2023-02-13T00:51:25.407Z,102915.75
2023-02-13T00:53:51.667Z,102915.81
2023-02-13T00:56:18.127Z,102916.38
2023-02-13T00:58:44.934Z,102917.41
2023-02-13T01:01:11.505Z,102925.97
2023-02-13T01:03:37.947Z,102919.00
2023-02-13T01:06:05.023Z,102923.91
2023-02-13T01:08:32.856Z,102922.16
2023-02-13T01:11:00.033Z,102916.19
2023-02-13T01:13:26.698Z,102922.78
2023-02-13T01:15:53.828Z,102918.47
2023-02-13T01:18:20.297Z,102922.28
2023-02-13T01:20:56.944Z,102915.59
2023-02-13T01:23:23.465Z,102919.97
2023-02-13T01:25:51.626Z,102911.97
2023-02-13T01:28:18.490Z,102915.38
2023-02-13T01:30:45.003Z,102909.97
2023-02-13T01:33:11.345Z,102908.94
2023-02-13T01:35:40.897Z,102904.03
2023-02-13T01:38:08.953Z,102898.28
2023-02-13T01:40:35.559Z,102903.53
2023-02-13T01:43:01.654Z,102902.72
2023-02-13T01:45:30.010Z,102901.69
2023-02-13T01:48:01.661Z,102904.16
2023-02-13T01:50:40.686Z,102900.69
2023-02-13T01:53:31.272Z,102901.94
2023-02-13T01:56:27.880Z,102899.16
2023-02-13T01:58:59.784Z,102895.66
2023-02-13T02:01:27.884Z,102902.72
2023-02-13T02:04:13.021Z,102889.47
2023-02-13T02:06:43.663Z,102886.88
2023-02-13T02:09:16.112Z,102877.06
2023-02-13T02:11:58.723Z,102878.63
2023-02-13T02:14:26.756Z,102882.03
2023-02-13T02:16:56.168Z,102881.81
2023-02-13T02:19:42.278Z,102873.72
2023-02-13T02:22:45.761Z,102887.13
2023-02-13T02:25:46.743Z,102883.31
2023-02-13T02:28:38.339Z,102885.63
2023-02-13T02:31:32.562Z,102885.56
2023-02-13T02:34:17.506Z,102878.34
2023-02-13T02:37:21.239Z,102880.25
2023-02-13T02:40:17.552Z,102875.94
2023-02-13T02:43:02.272Z,102859.63
2023-02-13T02:45:54.197Z,102866.13
2023-02-13T02:48:43.295Z,102872.69
2023-02-13T02:51:18.486Z,102865.69
2023-02-13T02:54:27.897Z,102872.28
2023-02-13T02:57:07.105Z,102861.03
2023-02-13T02:59:54.667Z,102878.16
2023-02-13T03:02:40.345Z,102861.25
2023-02-13T03:05:36.860Z,102856.28
2023-02-13T03:08:04.221Z,102864.09
2023-02-13T03:10:52.755Z,102850.63
2023-02-13T03:13:41.426Z,102857.91
2023-02-13T03:16:33.727Z,102860.31
2023-02-13T03:19:18.848Z,102855.47
2023-02-13T03:22:14.229Z,102855.47
2023-02-13T03:24:57.842Z,102848.97
2023-02-13T03:28:12.026Z,102849.91
2023-02-13T03:31:17.176Z,102845.66
2023-02-13T03:34:01.621Z,102838.38
2023-02-13T03:37:02.301Z,102843.41
2023-02-13T03:39:50.036Z,102840.47
2023-02-13T03:42:36.434Z,102843.25
2023-02-13T03:45:25.308Z,102843.91
2023-02-13T03:47:56.216Z,102842.38
2023-02-13T03:50:25.416Z,102849.75
2023-02-13T03:53:04.752Z,102850.63
2023-02-13T03:55:54.030Z,102842.97
2023-02-13T03:58:47.659Z,102846.69
2023-02-13T04:01:17.907Z,102840.50
2023-02-13T04:03:58.107Z,102844.38
2023-02-13T04:06:31.288Z,102848.88
2023-02-13T04:08:58.038Z,102842.78
2023-02-13T04:11:36.649Z,102836.44
2023-02-13T04:14:09.012Z,102839.94
2023-02-13T04:16:42.669Z,102840.72
2023-02-13T04:19:10.735Z,102845.00
2023-02-13T04:21:39.625Z,102837.72
2023-02-13T04:24:07.250Z,102843.66
2023-02-13T04:26:38.898Z,102841.50
2023-02-13T04:29:05.724Z,102839.69
2023-02-13T04:31:32.143Z,102844.38
2023-02-13T04:33:58.670Z,102840.41
2023-02-13T04:36:24.827Z,102841.06
2023-02-13T04:38:51.392Z,102843.50
2023-02-13T04:41:18.272Z,102842.25
2023-02-13T04:43:44.997Z,102852.72
2023-02-13T04:46:11.349Z,102860.97
2023-02-13T04:48:38.908Z,102859.78
2023-02-13T04:51:05.590Z,102857.72
2023-02-13T04:53:32.017Z,102856.13
2023-02-13T04:55:58.353Z,102841.53
2023-02-13T04:58:24.909Z,102848.53
2023-02-13T05:00:51.073Z,102843.75
2023-02-13T05:03:17.672Z,102857.09
2023-02-13T05:05:44.024Z,102844.72
2023-02-13T05:08:10.970Z,102850.50
2023-02-13T05:10:37.234Z,102842.94
2023-02-13T05:13:03.727Z,102842.88
2023-02-13T05:15:30.156Z,102844.44
2023-02-13T05:17:56.674Z,102855.97
2023-02-13T05:20:22.921Z,102862.72
2023-02-13T05:23:10.564Z,102869.78
2023-02-13T05:25:39.536Z,102872.47
2023-02-13T05:28:29.476Z,102870.97
2023-02-13T05:30:55.830Z,102866.38
2023-02-13T05:33:22.571Z,102861.06
2023-02-13T05:35:49.304Z,102867.41
2023-02-13T05:38:16.304Z,102871.06
2023-02-13T05:40:42.869Z,102879.63
2023-02-13T05:43:09.465Z,102876.91
2023-02-13T05:45:35.848Z,102875.81
2023-02-13T05:48:02.456Z,102879.53
2023-02-13T05:50:28.891Z,102880.56
2023-02-13T05:52:55.803Z,102882.31
2023-02-13T05:55:22.255Z,102894.06
2023-02-13T05:57:48.866Z,102882.16
2023-02-13T06:00:15.900Z,102879.47
2023-02-13T06:02:42.658Z,102882.25
2023-02-13T06:05:09.008Z,102888.34
2023-02-13T06:07:35.560Z,102885.66
2023-02-13T06:10:01.700Z,102889.47
2023-02-13T06:12:28.179Z,102896.59
2023-02-13T06:14:54.384Z,102892.63
2023-02-13T06:17:20.985Z,102890.00
2023-02-13T06:19:47.219Z,102893.34
2023-02-13T06:22:13.878Z,102889.84
2023-02-13T06:24:40.383Z,102895.34
2023-02-13T06:27:06.902Z,102898.66
2023-02-13T06:29:33.467Z,102900.56
2023-02-13T06:32:00.339Z,102904.06
2023-02-13T06:34:26.629Z,102907.63
2023-02-13T06:36:53.137Z,102906.91
2023-02-13T06:39:20.717Z,102905.09
2023-02-13T06:41:47.200Z,102910.34
2023-02-13T06:44:13.592Z,102901.13
2023-02-13T06:46:40.006Z,102910.88
2023-02-13T06:49:06.223Z,102914.53
2023-02-13T06:51:32.674Z,102928.19
2023-02-13T06:53:58.863Z,102919.22
2023-02-13T06:56:25.726Z,102923.91
2023-02-13T06:58:51.957Z,102931.94
2023-02-13T07:01:18.404Z,102931.13
2023-02-13T07:03:45.209Z,102933.03
2023-02-13T07:06:17.012Z,102945.66
2023-02-13T07:08:43.230Z,102941.13
2023-02-13T07:11:17.158Z,102953.91
2023-02-13T07:13:43.328Z,102950.50
2023-02-13T07:16:09.756Z,102947.56
2023-02-13T07:18:37.635Z,102947.72
2023-02-13T07:21:05.225Z,102948.53
2023-02-13T07:23:31.484Z,102959.47
2023-02-13T07:25:59.777Z,102942.34
2023-02-13T07:28:27.109Z,102957.09
2023-02-13T07:30:56.448Z,102964.00
2023-02-13T07:33:23.632Z,102951.69
2023-02-13T07:35:51.793Z,102948.03
2023-02-13T07:38:18.963Z,102935.72
2023-02-13T07:40:45.722Z,102952.75
2023-02-13T07:43:12.421Z,102944.69
2023-02-13T07:45:38.978Z,102949.22
2023-02-13T07:48:05.441Z,102953.22
2023-02-13T07:50:32.235Z,102959.69
2023-02-13T07:53:00.568Z,102951.38
2023-02-13T07:55:30.472Z,102956.63
2023-02-13T07:57:56.682Z,102959.91
2023-02-13T08:00:23.402Z,102956.88
2023-02-13T08:02:50.004Z,102959.13
2023-02-13T08:05:16.983Z,102962.31
2023-02-13T08:07:43.633Z,102957.22
2023-02-13T08:10:41.868Z,102955.97
2023-02-13T08:13:09.835Z,102955.75
2023-02-13T08:15:36.248Z,102963.44
2023-02-13T08:18:02.887Z,102960.59
2023-02-13T08:20:29.617Z,102961.63
2023-02-13T08:23:04.315Z,102959.47
2023-02-13T08:25:31.165Z,102958.38
2023-02-13T08:27:58.599Z,102949.63
2023-02-13T08:30:25.497Z,102951.38
2023-02-13T08:32:54.530Z,102958.13
2023-02-13T08:35:25.891Z,102947.41
2023-02-13T08:37:53.364Z,102957.25
2023-02-13T08:40:20.143Z,102956.31
2023-02-13T08:42:46.286Z,102954.56
2023-02-13T08:45:12.765Z,102953.28
2023-02-13T08:47:39.163Z,102954.56
2023-02-13T08:50:06.409Z,102963.59
2023-02-13T08:52:32.652Z,102951.22
2023-02-13T08:54:59.151Z,102954.00
2023-02-13T08:57:25.301Z,102956.47
2023-02-13T08:59:51.777Z,102953.59
2023-02-13T09:02:18.020Z,102951.63
2023-02-13T09:04:44.656Z,102955.28
2023-02-13T09:07:11.756Z,102957.91
2023-02-13T09:09:38.262Z,102946.31
2023-02-13T09:12:05.213Z,102956.63
2023-02-13T09:14:32.936Z,102956.78
2023-02-13T09:17:00.366Z,102947.66
2023-02-13T09:19:26.869Z,102949.94
2023-02-13T09:21:53.318Z,102946.84
2023-02-13T09:24:20.193Z,102945.91
2023-02-13T09:26:46.480Z,102942.09
2023-02-13T09:29:13.054Z,102942.88
2023-02-13T09:31:39.520Z,102942.09
2023-02-13T09:34:06.201Z,102944.88
2023-02-13T09:36:32.608Z,102946.63
2023-02-13T09:38:59.940Z,102944.16
2023-02-13T09:41:39.147Z,102950.75
2023-02-13T09:44:32.997Z,102941.53
2023-02-13T09:47:11.174Z,102953.03
2023-02-13T09:49:42.621Z,102937.34
2023-02-13T09:52:09.839Z,102956.38
2023-02-13T09:54:36.434Z,102950.03
2023-02-13T09:57:13.885Z,102948.13
2023-02-13T10:00:02.021Z,102950.59
2023-02-13T10:02:35.900Z,102943.13
2023-02-13T10:05:19.637Z,102943.75
2023-02-13T10:07:57.648Z,102941.84
2023-02-13T10:10:32.709Z,102945.19
2023-02-13T10:13:30.659Z,102940.81
2023-02-13T10:16:02.739Z,102939.63
2023-02-13T10:18:37.525Z,102949.69
2023-02-13T10:21:06.676Z,102955.03
2023-02-13T10:23:40.117Z,102948.50
2023-02-13T10:26:15.739Z,102951.91
2023-02-13T10:29:08.408Z,102947.06
2023-02-13T10:31:38.697Z,102949.50
2023-02-13T10:34:12.063Z,102949.34
2023-02-13T10:36:44.927Z,102949.34
2023-02-13T10:39:26.360Z,102945.44
2023-02-13T10:42:00.226Z,102933.47
2023-02-13T10:45:01.810Z,102935.22
2023-02-13T10:48:05.919Z,102938.97
2023-02-13T10:51:16.561Z,102931.31
2023-02-13T10:53:57.826Z,102938.78
2023-02-13T10:56:42.373Z,102937.22
2023-02-13T10:59:22.846Z,102946.34
2023-02-13T11:01:55.970Z,102938.16
2023-02-13T11:04:22.881Z,102935.63
2023-02-13T11:06:58.990Z,102934.22
2023-02-13T11:09:26.458Z,102926.09
2023-02-13T11:11:53.451Z,102929.75
2023-02-13T11:14:22.198Z,102921.81
2023-02-13T11:16:55.491Z,102934.13
2023-02-13T11:19:31.032Z,102933.09
2023-02-13T11:22:03.936Z,102928.81
2023-02-13T11:24:31.929Z,102924.53
2023-02-13T11:27:01.933Z,102929.69
2023-02-13T11:29:31.044Z,102922.91
2023-02-13T11:32:23.312Z,102918.16
2023-02-13T11:34:50.664Z,102937.22
2023-02-13T11:37:29.409Z,102932.59
2023-02-13T11:39:59.631Z,102924.50
2023-02-13T11:42:33.807Z,102918.84
2023-02-13T11:45:05.539Z,102911.97
2023-02-13T11:47:35.528Z,102914.78
2023-02-13T11:50:03.445Z,102906.13
2023-02-13T11:52:35.020Z,102907.88
2023-02-13T11:55:25.476Z,102914.16
2023-02-13T11:58:22.358Z,102916.06
2023-02-13T12:00:49.177Z,102919.34
2023-02-13T12:03:21.587Z,102913.69
2023-02-13T12:06:10.168Z,102911.06
2023-02-13T12:08:38.029Z,102901.94
2023-02-13T12:11:41.680Z,102897.56
2023-02-13T12:14:17.427Z,102898.69
2023-02-13T12:16:52.027Z,102894.16
2023-02-13T12:19:34.914Z,102903.84
2023-02-13T12:22:01.425Z,102907.94
2023-02-13T12:24:41.039Z,102909.69
2023-02-13T12:27:13.516Z,102906.91
2023-02-13T12:30:17.197Z,102906.03
2023-02-13T12:33:02.476Z,102906.91
2023-02-13T12:35:31.332Z,102910.75
2023-02-13T12:38:06.966Z,102907.16
2023-02-13T12:40:49.510Z,102911.34
2023-02-13T12:43:48.534Z,102906.03
2023-02-13T12:46:42.893Z,102888.00
2023-02-13T12:49:21.644Z,102890.63
2023-02-13T12:52:16.341Z,102891.91
2023-02-13T12:54:56.437Z,102892.69
2023-02-13T12:57:32.677Z,102876.66
2023-02-13T13:00:19.566Z,102879.94
2023-02-13T13:03:10.876Z,102871.25
2023-02-13T13:06:11.649Z,102875.19
2023-02-13T13:09:07.542Z,102871.97
2023-02-13T13:12:04.974Z,102868.47
2023-02-13T13:14:58.669Z,102868.47
2023-02-13T13:17:40.426Z,102863.78
2023-02-13T13:20:16.472Z,102862.13
2023-02-13T13:23:00.118Z,102865.16
2023-02-13T13:25:43.224Z,102866.66
2023-02-13T13:28:17.868Z,102869.19
2023-02-13T13:30:46.038Z,102861.84
2023-02-13T13:33:21.177Z,102859.78
2023-02-13T13:35:55.156Z,102857.25
2023-02-13T13:38:27.742Z,102856.13
2023-02-13T13:41:26.482Z,102848.97
2023-02-13T13:44:14.552Z,102842.00
2023-02-13T13:46:46.904Z,102841.84
2023-02-13T13:49:33.744Z,102846.09
2023-02-13T13:52:21.811Z,102835.63
2023-02-13T13:54:51.874Z,102819.94
2023-02-13T13:57:20.630Z,102805.66
2023-02-13T13:59:50.881Z,102804.50
2023-02-13T14:02:17.365Z,102797.19
2023-02-13T14:05:19.847Z,102813.75
2023-02-13T14:07:52.659Z,102817.16
2023-02-13T14:10:25.474Z,102819.75
2023-02-13T14:12:54.989Z,102819.06
2023-02-13T14:15:34.350Z,102820.22
2023-02-13T14:18:03.650Z,102811.66
2023-02-13T14:20:37.831Z,102808.34
2023-02-13T14:23:32.111Z,102814.09
2023-02-13T14:26:25.528Z,102813.66
2023-02-13T14:28:51.854Z,102814.69
2023-02-13T14:31:31.544Z,102812.78
2023-02-13T14:33:57.959Z,102808.09
2023-02-13T14:36:36.883Z,102801.78
2023-02-13T14:39:16.947Z,102802.66
2023-02-13T14:41:50.334Z,102804.31
2023-02-13T14:44:23.507Z,102803.09
2023-02-13T14:46:53.493Z,102800.16
2023-02-13T14:49:26.284Z,102799.00
2023-02-13T14:51:57.345Z,102801.88
2023-02-13T14:54:31.952Z,102811.28
2023-02-13T14:57:10.070Z,102829.38
2023-02-13T14:59:40.524Z,102812.22
2023-02-13T15:02:16.714Z,102796.91
2023-02-13T15:04:50.523Z,102808.56
2023-02-13T15:07:29.380Z,102810.56
2023-02-13T15:10:04.833Z,102812.84
2023-02-13T15:12:36.955Z,102812.50
2023-02-13T15:15:26.658Z,102817.00
2023-02-13T15:18:01.049Z,102806.38
2023-02-13T15:20:32.525Z,102803.06
2023-02-13T15:23:00.125Z,102800.03
2023-02-13T15:25:38.648Z,102816.81
2023-02-13T15:28:14.366Z,102811.88
2023-02-13T15:30:41.237Z,102812.28
2023-02-13T15:33:16.203Z,102822.03
2023-02-13T15:35:43.089Z,102818.72
2023-02-13T15:38:29.876Z,102818.00
2023-02-13T15:41:08.355Z,102819.63
2023-02-13T15:43:43.234Z,102823.97
2023-02-13T15:46:26.460Z,102822.78
2023-02-13T15:48:57.265Z,102822.00
2023-02-13T15:51:29.931Z,102816.25
2023-02-13T15:54:06.118Z,102815.81
2023-02-13T15:56:34.346Z,102813.16
2023-02-13T15:59:02.903Z,102810.88
2023-02-13T16:01:31.375Z,102787.59
2023-02-13T16:04:04.758Z,102792.78
2023-02-13T16:06:33.216Z,102797.06
2023-02-13T16:09:01.420Z,102799.31
2023-02-13T16:11:30.024Z,102794.31
2023-02-13T16:14:16.979Z,102794.25
2023-02-13T16:16:59.389Z,102795.03
2023-02-13T16:19:29.375Z,102798.38
2023-02-13T16:21:58.818Z,102798.53
2023-02-13T16:24:26.982Z,102784.16
2023-02-13T16:26:54.255Z,102792.00
2023-02-13T16:29:25.616Z,102803.84
2023-02-13T16:31:53.340Z,102791.84
2023-02-13T16:34:26.368Z,102790.25
2023-02-13T16:36:54.284Z,102803.84
2023-02-13T16:39:28.103Z,102800.41
2023-02-13T16:41:55.347Z,102805.97
2023-02-13T16:44:23.566Z,102804.22
2023-02-13T16:47:01.054Z,102802.47
2023-02-13T16:49:33.092Z,102808.91
2023-02-13T16:52:25.356Z,102805.56
2023-02-13T16:54:58.275Z,102805.34
2023-02-13T16:57:32.606Z,102816.28
2023-02-13T17:00:08.021Z,102808.97
2023-02-13T17:02:42.355Z,102791.84
2023-02-13T17:05:09.200Z,102808.34
2023-02-13T17:07:47.674Z,102798.09
2023-02-13T17:10:34.012Z,102789.38
2023-02-13T17:13:02.189Z,102784.88
2023-02-13T17:15:31.563Z,102785.97
2023-02-13T17:17:59.092Z,102793.19
2023-02-13T17:20:27.062Z,102800.34
2023-02-13T17:22:58.661Z,102816.13
2023-02-13T17:25:31.840Z,102801.53
2023-02-13T17:28:01.761Z,102801.69
2023-02-13T17:30:32.447Z,102804.16
2023-02-13T17:33:07.101Z,102808.84
2023-02-13T17:35:34.928Z,102811.22
2023-02-13T17:38:01.600Z,102815.13
2023-02-13T17:40:30.156Z,102819.22
2023-02-13T17:42:58.078Z,102818.28
2023-02-13T17:45:27.239Z,102816.78
2023-02-13T17:47:53.914Z,102820.03
2023-02-13T17:50:21.202Z,102818.75
2023-02-13T17:52:48.704Z,102817.00
2023-02-13T17:55:20.576Z,102817.19
2023-02-13T17:57:48.178Z,102814.00
2023-02-13T18:00:15.700Z,102806.78
2023-02-13T18:02:42.564Z,102807.03
2023-02-13T18:05:10.490Z,102813.38
2023-02-13T18:07:39.137Z,102806.72
2023-02-13T18:10:08.551Z,102814.06
2023-02-13T18:12:35.145Z,102812.16
2023-02-13T18:15:02.114Z,102815.81
2023-02-13T18:17:28.998Z,102807.09
2023-02-13T18:19:55.898Z,102817.47
2023-02-13T18:22:22.137Z,102811.38
2023-02-13T18:24:49.408Z,102803.06
2023-02-13T18:27:16.122Z,102823.28
2023-02-13T18:29:43.088Z,102823.09
2023-02-13T18:32:11.224Z,102817.00
2023-02-13T18:34:38.750Z,102816.84
2023-02-13T18:37:06.501Z,102817.72
2023-02-13T18:39:34.217Z,102830.41
2023-02-13T18:42:01.294Z,102837.72
2023-02-13T18:44:29.032Z,102824.56
2023-02-13T18:46:56.187Z,102833.88
2023-02-13T18:49:24.479Z,102831.53
2023-02-13T18:51:51.542Z,102835.97
2023-02-13T18:54:18.465Z,102840.41
2023-02-13T18:56:45.744Z,102832.00
2023-02-13T18:59:12.857Z,102838.66
2023-02-13T19:01:39.838Z,102838.19
2023-02-13T19:04:07.133Z,102836.28
2023-02-13T19:06:34.072Z,102848.72
2023-02-13T19:09:01.143Z,102835.94
2023-02-13T19:11:28.134Z,102844.66
2023-02-13T19:13:58.271Z,102849.22
2023-02-13T19:16:25.103Z,102849.75
2023-02-13T19:18:53.993Z,102847.63
2023-02-13T19:21:23.532Z,102847.63
2023-02-13T19:23:51.469Z,102852.38
2023-02-13T19:26:21.097Z,102859.28
2023-02-13T19:28:48.742Z,102858.25
2023-02-13T19:31:18.611Z,102858.88
2023-02-13T19:33:46.004Z,102862.47
2023-02-13T19:36:15.003Z,102858.34
2023-02-13T19:38:44.555Z,102869.44
2023-02-13T19:41:17.474Z,102866.91
2023-02-13T19:43:53.025Z,102877.34
2023-02-13T19:46:25.498Z,102872.47
2023-02-13T19:48:53.205Z,102870.72
2023-02-13T19:51:23.807Z,102875.41
2023-02-13T19:53:58.866Z,102870.56
2023-02-13T19:56:27.518Z,102883.91
2023-02-13T19:58:54.542Z,102873.75
2023-02-13T20:01:23.537Z,102861.06
2023-02-13T20:03:51.504Z,102876.22
2023-02-13T20:06:24.023Z,102875.19
2023-02-13T20:08:52.094Z,102891.28
2023-02-13T20:11:20.594Z,102892.97
2023-02-13T20:13:48.025Z,102889.47
2023-02-13T20:16:16.045Z,102901.19
2023-02-13T20:18:43.275Z,102906.25
2023-02-13T20:21:12.634Z,102905.38
2023-02-13T20:23:40.194Z,102918.22
2023-02-13T20:26:13.440Z,102909.25
2023-02-13T20:28:42.502Z,102918.78
2023-02-13T20:31:10.939Z,102917.72
2023-02-13T20:33:40.010Z,102924.00
2023-02-13T20:36:30.156Z,102928.44
2023-02-13T20:38:59.960Z,102930.56
2023-02-13T20:41:32.738Z,102925.25
2023-02-13T20:44:03.046Z,102923.34
2023-02-13T20:46:35.251Z,102925.44
2023-02-13T20:49:02.459Z,102927.75
2023-02-13T20:51:29.370Z,102935.47
2023-02-13T20:53:56.545Z,102927.28
2023-02-13T20:56:26.795Z,102925.25
2023-02-13T20:58:57.372Z,102925.66
2023-02-13T21:01:30.623Z,102933.66
2023-02-13T21:03:58.414Z,102928.97
2023-02-13T21:06:26.503Z,102927.97
2023-02-13T21:08:53.666Z,102925.97
2023-02-13T21:11:21.081Z,102927.09
2023-02-13T21:13:48.681Z,102931.22
2023-02-13T21:16:18.860Z,102919.63
2023-02-13T21:18:51.376Z,102925.03
2023-02-13T21:21:18.394Z,102931.59
2023-02-13T21:23:45.613Z,102925.19
2023-02-13T21:26:16.570Z,102928.81
2023-02-13T21:28:45.638Z,102933.19
2023-02-13T21:31:15.131Z,102931.53
2023-02-13T21:33:42.373Z,102931.75
2023-02-13T21:36:10.827Z,102930.56
2023-02-13T21:38:39.181Z,102944.16
2023-02-13T21:41:17.107Z,102937.47
2023-02-13T21:43:47.471Z,102937.72
2023-02-13T21:46:18.064Z,102932.47
2023-02-13T21:48:46.335Z,102939.69
2023-02-13T21:51:14.690Z,102939.69
2023-02-13T21:53:42.551Z,102943.28
2023-02-13T21:56:14.396Z,102935.03
2023-02-13T21:58:42.641Z,102933.59
2023-02-13T22:01:23.894Z,102939.63
2023-02-13T22:04:00.217Z,102938.75
2023-02-13T22:06:29.324Z,102938.84
2023-02-13T22:09:01.268Z,102934.31
2023-02-13T22:11:28.644Z,102937.09
2023-02-13T22:13:59.618Z,102934.06
2023-02-13T22:16:26.060Z,102934.56
2023-02-13T22:18:52.973Z,102935.66
2023-02-13T22:21:22.202Z,102943.13
2023-02-13T22:23:50.276Z,102934.22
2023-02-13T22:26:25.108Z,102929.16
2023-02-13T22:28:53.482Z,102932.72
2023-02-13T22:31:23.549Z,102928.34
2023-02-13T22:34:02.987Z,102922.16
2023-02-13T22:36:38.185Z,102938.03
2023-02-13T22:39:05.871Z,102930.09
2023-02-13T22:41:32.452Z,102931.19
2023-02-13T22:43:59.287Z,102927.47
2023-02-13T22:46:30.592Z,102937.38
2023-02-13T22:48:58.034Z,102945.47
2023-02-13T22:51:27.792Z,102941.84
2023-02-13T22:53:56.180Z,102939.94
2023-02-13T22:56:24.379Z,102941.84
2023-02-13T22:58:51.556Z,102931.44
2023-02-13T23:01:20.583Z,102932.16
2023-02-13T23:03:47.261Z,102937.63
2023-02-13T23:06:15.027Z,102931.50
2023-02-13T23:08:42.402Z,102937.47
2023-02-13T23:11:30.211Z,102936.59
2023-02-13T23:13:57.538Z,102929.59
2023-02-13T23:16:24.041Z,102928.97
2023-02-13T23:18:57.063Z,102935.47
2023-02-13T23:21:24.078Z,102928.56
2023-02-13T23:23:51.074Z,102923.31
2023-02-13T23:26:17.313Z,102923.38
2023-02-13T23:28:44.420Z,102927.25
2023-02-13T23:31:10.951Z,102930.97
2023-02-13T23:33:37.880Z,102920.19
2023-02-13T23:36:04.444Z,102928.38
2023-02-13T23:38:31.391Z,102921.94
2023-02-13T23:41:05.786Z,102912.19
2023-02-13T23:43:32.438Z,102921.78
2023-02-13T23:45:58.617Z,102917.00
2023-02-13T23:48:25.507Z,102922.16
2023-02-13T23:50:52.455Z,102920.66
2023-02-13T23:53:18.941Z,102919.69
2023-02-13T23:55:45.125Z,102924.44
2023-02-13T23:58:11.597Z,102920.00
